メインページ
METAR-TAF:

METAR-TAF

空港 :

Puerto Suárez, ボリビア

緯度: 18-59S, 経度: 057-49W, 海抜: 134m

現時点の気象観測

当レポートは15分前の10:00(UTC)に作成
無風
気温 24°C
湿度 83%
気圧 1012 hPa
視程10km以上

METAR: SLPS 191000Z 00000KT 9999 NSC 24/21 Q1012

時間: 06:15 (10:15 UTC)

予報

当レポートは6時間15分前の04:00(UTC)に作成
予報は19日の 06時(UTC)から 20日の 06時(UTC)まで有効
東/北東の風 6kt
視程10km以上
高度2000ftの雲は散在している
19日の 22時(UTC)から 19日の 24時(UTC)まで徐々に
の風 kt
20日の 03時(UTC)から 20日の 06時(UTC)まで一時的に
高度1000ftの雲は散在している

TAF: SLPS 190400Z 1906/2006 06006KT 9999 SCT020 TX37/1919Z TN23/1910Z BECMG 1922/1924 00000KT NSC TEMPO 2003/2006 SCT010

4,000以上の空港の気象観測と天気予報(METAR報とTAF報)

利用可能な観測所は地図上に黄色い丸と赤い丸で示す。

丸の上にカーソルを重ねると観測所名を参照できる。

次にクリックすると気象観測と天気予報を参照できる。

マップの切り替え:黒色「×」印の緑ボタンをクリックして拡大、「-」印の緑ボタンをクリックして縮小、緑色の三角印をクリックして隣りの地図に切り替え


METAR-TAF: